createdAt,value
2023-11-23T00:00:32.886Z,9.95
2023-11-23T00:02:59.900Z,9.50
2023-11-23T00:05:30.360Z,8.07
2023-11-23T00:07:57.360Z,10.50
2023-11-23T00:10:24.481Z,9.75
2023-11-23T00:12:52.526Z,22.40
2023-11-23T00:15:19.760Z,10.95
2023-11-23T00:17:46.982Z,13.85
2023-11-23T00:20:13.993Z,12.55
2023-11-23T00:22:41.080Z,15.20
2023-11-23T00:25:13.429Z,12.05
2023-11-23T00:27:40.762Z,6.57
2023-11-23T00:30:11.128Z,8.20
2023-11-23T00:32:38.321Z,8.95
2023-11-23T00:35:05.417Z,9.13
2023-11-23T00:37:32.781Z,9.82
2023-11-23T00:40:00.077Z,11.60
2023-11-23T00:42:27.095Z,10.93
2023-11-23T00:44:54.238Z,7.65
2023-11-23T00:47:21.543Z,12.15
2023-11-23T00:49:48.572Z,7.18
2023-11-23T00:52:16.425Z,10.05
2023-11-23T00:54:43.597Z,7.07
2023-11-23T00:57:10.715Z,7.28
2023-11-23T00:59:37.811Z,8.00
2023-11-23T01:02:05.534Z,8.85
2023-11-23T01:04:32.864Z,10.45
2023-11-23T01:07:00.549Z,9.48
2023-11-23T01:09:27.486Z,6.53
2023-11-23T01:11:55.948Z,6.07
2023-11-23T01:14:23.068Z,6.07
2023-11-23T01:16:50.090Z,8.35
2023-11-23T01:19:17.058Z,7.85
2023-11-23T01:21:44.217Z,9.43
2023-11-23T01:24:11.311Z,9.20
2023-11-23T01:26:38.934Z,6.78
2023-11-23T01:29:06.066Z,7.88
2023-11-23T01:31:33.084Z,10.05
2023-11-23T01:34:01.200Z,6.72
2023-11-23T01:36:29.011Z,6.45
2023-11-23T01:38:56.283Z,6.28
2023-11-23T01:41:24.013Z,8.75
2023-11-23T01:43:51.072Z,6.65
2023-11-23T01:46:18.263Z,9.23
2023-11-23T01:48:45.789Z,4.95
2023-11-23T01:51:13.968Z,5.90
2023-11-23T01:53:41.563Z,6.38
2023-11-23T01:56:09.516Z,7.72
2023-11-23T01:58:36.449Z,6.13
2023-11-23T02:01:05.042Z,4.55
2023-11-23T02:03:32.122Z,4.97
2023-11-23T02:05:59.711Z,5.43
2023-11-23T02:08:27.267Z,7.50
2023-11-23T02:10:55.380Z,7.93
2023-11-23T02:13:23.041Z,4.95
2023-11-23T02:15:50.214Z,6.50
2023-11-23T02:18:17.362Z,6.53
2023-11-23T02:20:50.488Z,5.18
2023-11-23T02:23:17.657Z,6.60
2023-11-23T02:25:44.708Z,4.97
2023-11-23T02:28:11.826Z,4.93
2023-11-23T02:30:38.862Z,6.07
2023-11-23T02:33:06.246Z,5.55
2023-11-23T02:35:33.365Z,8.55
2023-11-23T02:38:01.536Z,4.85
2023-11-23T02:40:28.436Z,8.85
2023-11-23T02:42:56.402Z,8.80
2023-11-23T02:45:23.480Z,7.22
2023-11-23T02:47:50.833Z,6.15
2023-11-23T02:50:17.901Z,5.28
2023-11-23T02:52:44.906Z,5.57
2023-11-23T02:55:12.597Z,5.18
2023-11-23T02:57:39.945Z,5.47
2023-11-23T03:00:08.601Z,6.28
2023-11-23T03:02:35.807Z,5.93
2023-11-23T03:05:02.905Z,8.20
2023-11-23T03:07:29.934Z,13.73
2023-11-23T03:09:56.868Z,4.65
2023-11-23T03:12:24.643Z,7.55
2023-11-23T03:14:52.231Z,9.32
2023-11-23T03:17:20.406Z,5.25
2023-11-23T03:19:47.422Z,4.63
2023-11-23T03:22:14.702Z,8.05
2023-11-23T03:24:41.725Z,11.05
2023-11-23T03:27:10.684Z,4.07
2023-11-23T03:29:37.731Z,6.15
2023-11-23T03:32:04.980Z,13.52
2023-11-23T03:34:32.562Z,7.72
2023-11-23T03:36:59.666Z,8.05
2023-11-23T03:39:27.196Z,7.55
2023-11-23T03:41:54.399Z,5.82
2023-11-23T03:44:21.690Z,5.55
2023-11-23T03:46:48.797Z,7.53
2023-11-23T03:49:15.744Z,6.93
2023-11-23T03:51:42.777Z,4.43
2023-11-23T03:54:09.785Z,10.75
2023-11-23T03:56:39.295Z,4.50
2023-11-23T03:59:06.396Z,4.35
2023-11-23T04:01:34.228Z,3.20
2023-11-23T04:04:01.714Z,4.68
2023-11-23T04:06:28.981Z,5.15
2023-11-23T04:08:55.981Z,4.47
2023-11-23T04:11:24.660Z,4.22
2023-11-23T04:13:51.572Z,3.22
2023-11-23T04:16:18.756Z,3.78
2023-11-23T04:18:47.558Z,3.20
2023-11-23T04:21:15.208Z,4.00
2023-11-23T04:23:42.369Z,3.28
2023-11-23T04:26:09.444Z,4.82
2023-11-23T04:28:37.232Z,4.47
2023-11-23T04:31:05.490Z,3.35
2023-11-23T04:33:33.162Z,2.58
2023-11-23T04:36:01.397Z,4.90
2023-11-23T04:38:29.236Z,3.78
2023-11-23T04:40:56.242Z,3.35
2023-11-23T04:43:23.400Z,3.35
2023-11-23T04:45:50.590Z,7.07
2023-11-23T04:48:17.747Z,4.20
2023-11-23T04:50:44.913Z,6.13
2023-11-23T04:53:11.960Z,3.60
2023-11-23T04:55:40.242Z,4.78
2023-11-23T04:58:08.573Z,8.18
2023-11-23T05:00:37.176Z,5.32
2023-11-23T05:03:04.373Z,8.35
2023-11-23T05:05:31.579Z,4.03
2023-11-23T05:07:58.557Z,3.75
2023-11-23T05:10:25.543Z,5.35
2023-11-23T05:12:53.236Z,10.35
2023-11-23T05:15:20.478Z,6.18
2023-11-23T05:17:47.782Z,5.15
2023-11-23T05:20:15.186Z,6.75
2023-11-23T05:22:42.196Z,5.07
2023-11-23T05:25:09.388Z,6.38
2023-11-23T05:27:36.615Z,5.22
2023-11-23T05:30:03.990Z,3.80
2023-11-23T05:32:31.591Z,4.50
2023-11-23T05:34:58.733Z,5.20
2023-11-23T05:37:25.665Z,7.70
2023-11-23T05:39:52.883Z,6.28
2023-11-23T05:42:20.006Z,5.65
2023-11-23T05:44:47.139Z,4.90
2023-11-23T05:47:14.349Z,5.82
2023-11-23T05:49:41.592Z,4.53
2023-11-23T05:52:10.493Z,5.18
2023-11-23T05:54:38.768Z,6.13
2023-11-23T05:57:06.001Z,6.00
2023-11-23T05:59:34.093Z,6.55
2023-11-23T06:02:04.151Z,6.75
2023-11-23T06:04:31.358Z,9.63
2023-11-23T06:06:58.372Z,8.07
2023-11-23T06:09:25.420Z,12.13
2023-11-23T06:11:52.432Z,8.18
2023-11-23T06:14:19.515Z,8.27
2023-11-23T06:16:46.480Z,16.77
2023-11-23T06:19:13.478Z,10.05
2023-11-23T06:21:40.393Z,12.13
2023-11-23T06:24:07.863Z,9.15
2023-11-23T06:26:34.894Z,11.02
2023-11-23T06:29:01.920Z,9.25
2023-11-23T06:31:29.288Z,10.15
2023-11-23T06:33:56.596Z,10.00
2023-11-23T06:36:23.654Z,10.57
2023-11-23T06:38:50.855Z,12.95
2023-11-23T06:41:20.070Z,15.07
2023-11-23T06:43:50.898Z,15.55
2023-11-23T06:46:18.176Z,16.63
2023-11-23T06:48:48.352Z,26.38
2023-11-23T06:51:15.818Z,16.95
2023-11-23T06:53:47.724Z,15.13
2023-11-23T06:56:15.753Z,17.48
2023-11-23T06:58:43.183Z,15.45
2023-11-23T07:01:10.480Z,8.65
2023-11-23T07:03:37.896Z,9.82
2023-11-23T07:06:05.830Z,9.63
2023-11-23T07:08:37.129Z,11.82
2023-11-23T07:11:07.100Z,14.57
2023-11-23T07:13:34.797Z,8.85
2023-11-23T07:16:04.244Z,8.93
2023-11-23T07:18:31.774Z,6.57
2023-11-23T07:20:58.968Z,8.55
2023-11-23T07:23:26.487Z,10.52
2023-11-23T07:25:54.218Z,16.73
2023-11-23T07:28:23.351Z,10.55
2023-11-23T07:30:50.507Z,15.00
2023-11-23T07:33:19.166Z,15.82
2023-11-23T07:35:48.316Z,11.07
2023-11-23T07:38:16.511Z,15.77
2023-11-23T07:40:45.193Z,15.18
2023-11-23T07:43:12.303Z,24.70
2023-11-23T07:45:39.521Z,13.20
2023-11-23T07:48:10.781Z,14.65
2023-11-23T07:50:38.666Z,11.55
2023-11-23T07:53:05.993Z,12.52
2023-11-23T07:55:33.051Z,11.98
2023-11-23T07:58:00.253Z,13.23
2023-11-23T08:00:27.491Z,11.52
2023-11-23T08:02:56.084Z,11.95
2023-11-23T08:05:24.287Z,18.10
2023-11-23T08:07:51.772Z,12.73
2023-11-23T08:10:18.756Z,14.68
2023-11-23T08:12:46.661Z,19.92
2023-11-23T08:15:16.676Z,22.52
2023-11-23T08:17:54.156Z,18.48
2023-11-23T08:20:28.815Z,17.08
2023-11-23T08:22:55.885Z,16.10
2023-11-23T08:25:23.646Z,16.65
2023-11-23T08:27:50.760Z,22.42
2023-11-23T08:30:21.585Z,13.30
2023-11-23T08:32:50.097Z,17.55
2023-11-23T08:35:18.753Z,24.60
2023-11-23T08:37:46.695Z,18.42
2023-11-23T08:40:14.077Z,15.40
2023-11-23T08:42:41.114Z,32.30
2023-11-23T08:45:09.053Z,21.77
2023-11-23T08:47:36.315Z,26.08
2023-11-23T08:50:03.490Z,23.48
2023-11-23T08:52:30.726Z,23.35
2023-11-23T08:54:57.694Z,23.55
2023-11-23T08:57:24.787Z,44.72
2023-11-23T08:59:51.781Z,40.65
2023-11-23T09:02:20.941Z,30.83
2023-11-23T09:04:49.866Z,36.50
2023-11-23T09:07:19.108Z,30.40
2023-11-23T09:09:48.153Z,31.83
2023-11-23T09:12:15.578Z,28.17
2023-11-23T09:14:49.012Z,37.95
2023-11-23T09:17:17.830Z,18.15
2023-11-23T09:19:45.076Z,20.42
2023-11-23T09:22:12.492Z,24.92
2023-11-23T09:24:40.474Z,27.25
2023-11-23T09:27:07.816Z,19.50
2023-11-23T09:29:34.988Z,29.02
2023-11-23T09:32:04.480Z,26.10
2023-11-23T09:34:31.701Z,46.05
2023-11-23T09:36:58.808Z,34.10
2023-11-23T09:39:27.969Z,29.08
2023-11-23T09:41:59.487Z,30.02
2023-11-23T09:44:30.586Z,32.72
2023-11-23T09:46:58.247Z,32.38
2023-11-23T09:49:26.114Z,24.33
2023-11-23T09:51:53.254Z,22.23
2023-11-23T09:54:22.456Z,25.33
2023-11-23T09:56:49.758Z,21.67
2023-11-23T09:59:17.722Z,24.42
2023-11-23T10:01:56.417Z,34.38
2023-11-23T10:04:23.602Z,18.65
2023-11-23T10:06:51.543Z,17.00
2023-11-23T10:09:18.926Z,20.50
2023-11-23T10:11:48.365Z,21.85
2023-11-23T10:14:17.326Z,28.88
2023-11-23T10:16:44.999Z,26.42
2023-11-23T10:19:24.734Z,31.98
2023-11-23T10:21:53.841Z,29.38
2023-11-23T10:24:21.076Z,32.13
2023-11-23T10:26:48.371Z,34.58
2023-11-23T10:29:15.546Z,31.58
2023-11-23T10:31:42.577Z,28.75
2023-11-23T10:34:10.021Z,30.98
2023-11-23T10:36:40.739Z,29.98
2023-11-23T10:39:12.658Z,30.83
2023-11-23T10:41:43.324Z,46.70
2023-11-23T10:44:11.939Z,40.17
2023-11-23T10:46:42.376Z,29.17
2023-11-23T10:49:09.747Z,21.50
2023-11-23T10:51:38.861Z,34.63
2023-11-23T10:54:06.365Z,35.95
2023-11-23T10:56:33.944Z,21.40
2023-11-23T10:59:06.843Z,24.02
2023-11-23T11:01:35.015Z,28.00
2023-11-23T11:04:02.323Z,26.90
2023-11-23T11:06:39.574Z,25.42
2023-11-23T11:09:17.393Z,28.80
2023-11-23T11:11:46.028Z,22.90
2023-11-23T11:14:14.941Z,24.90
2023-11-23T11:16:42.011Z,24.17
2023-11-23T11:19:13.486Z,29.08
2023-11-23T11:21:42.864Z,24.02
2023-11-23T11:24:20.466Z,27.08
2023-11-23T11:26:48.214Z,27.08
2023-11-23T11:29:16.619Z,40.20
2023-11-23T11:31:44.600Z,28.35
2023-11-23T11:34:24.172Z,23.05
2023-11-23T11:37:01.312Z,45.42
2023-11-23T11:39:33.107Z,40.72
2023-11-23T11:42:01.250Z,29.77
2023-11-23T11:44:30.445Z,28.58
2023-11-23T11:46:57.766Z,32.75
2023-11-23T11:49:28.476Z,31.17
2023-11-23T11:51:55.547Z,38.15
2023-11-23T11:54:28.505Z,38.65
2023-11-23T11:56:55.785Z,43.95
2023-11-23T11:59:23.337Z,31.85
2023-11-23T12:01:51.034Z,25.33
2023-11-23T12:04:18.851Z,28.05
2023-11-23T12:06:46.780Z,27.63
2023-11-23T12:09:15.994Z,30.02
2023-11-23T12:11:45.168Z,31.02
2023-11-23T12:14:15.073Z,27.65
2023-11-23T12:16:42.675Z,23.48
2023-11-23T12:19:20.826Z,23.13
2023-11-23T12:21:58.043Z,29.33
2023-11-23T12:24:27.202Z,36.42
2023-11-23T12:26:54.644Z,29.02
2023-11-23T12:29:30.533Z,32.20
2023-11-23T12:32:02.325Z,32.40
2023-11-23T12:34:30.844Z,23.67
2023-11-23T12:37:01.598Z,27.92
2023-11-23T12:39:29.599Z,29.15
2023-11-23T12:41:56.919Z,24.98
2023-11-23T12:44:24.260Z,27.13
2023-11-23T12:46:51.561Z,24.05
2023-11-23T12:49:23.462Z,25.38
2023-11-23T12:51:50.669Z,25.52
2023-11-23T12:54:17.767Z,31.27
2023-11-23T12:56:44.866Z,29.83
2023-11-23T12:59:12.044Z,38.80
2023-11-23T13:01:40.625Z,36.67
2023-11-23T13:04:10.031Z,41.78
2023-11-23T13:06:37.723Z,43.65
2023-11-23T13:09:13.227Z,42.92
2023-11-23T13:11:41.287Z,48.83
2023-11-23T13:14:08.815Z,29.10
2023-11-23T13:16:36.144Z,34.67
2023-11-23T13:19:15.967Z,31.63
2023-11-23T13:21:50.993Z,38.95
2023-11-23T13:24:18.121Z,49.53
2023-11-23T13:26:45.208Z,67.55
2023-11-23T13:29:12.354Z,60.92
2023-11-23T13:31:40.122Z,60.42
2023-11-23T13:34:10.025Z,47.17
2023-11-23T13:36:37.264Z,46.65
2023-11-23T13:39:04.800Z,49.83
2023-11-23T13:41:33.328Z,53.80
2023-11-23T13:44:02.534Z,49.50
2023-11-23T13:46:29.704Z,50.72
2023-11-23T13:48:57.493Z,57.95
2023-11-23T13:51:24.961Z,75.45
2023-11-23T13:53:54.118Z,44.63
2023-11-23T13:56:21.426Z,60.83
2023-11-23T13:58:48.480Z,63.20
2023-11-23T14:01:16.818Z,63.78
2023-11-23T14:03:44.130Z,68.28
2023-11-23T14:06:12.987Z,81.60
2023-11-23T14:08:40.150Z,75.18
2023-11-23T14:11:07.370Z,53.47
2023-11-23T14:13:34.579Z,65.28
2023-11-23T14:16:01.674Z,68.60
2023-11-23T14:18:30.382Z,53.33
2023-11-23T14:20:57.717Z,49.97
2023-11-23T14:23:24.860Z,52.20
2023-11-23T14:25:51.998Z,63.13
2023-11-23T14:28:22.072Z,68.47
2023-11-23T14:30:50.329Z,60.45
2023-11-23T14:33:22.744Z,61.45
2023-11-23T14:35:53.565Z,61.15
2023-11-23T14:38:21.368Z,60.15
2023-11-23T14:40:48.577Z,53.75
2023-11-23T14:43:20.260Z,63.17
2023-11-23T14:45:48.284Z,61.67
2023-11-23T14:48:16.255Z,58.17
2023-11-23T14:50:46.282Z,57.85
2023-11-23T14:53:14.943Z,52.03
2023-11-23T14:55:42.078Z,49.08
2023-11-23T14:58:10.321Z,49.53
2023-11-23T15:00:40.181Z,56.58
2023-11-23T15:03:07.911Z,55.40
2023-11-23T15:05:35.245Z,56.45
2023-11-23T15:08:02.352Z,70.70
2023-11-23T15:10:32.547Z,63.58
2023-11-23T15:13:00.451Z,59.25
2023-11-23T15:15:31.536Z,76.45
2023-11-23T15:18:01.302Z,54.85
2023-11-23T15:20:31.664Z,50.22
2023-11-23T15:23:01.905Z,51.65
2023-11-23T15:25:30.467Z,56.35
2023-11-23T15:27:57.745Z,49.58
2023-11-23T15:30:24.821Z,53.28
2023-11-23T15:32:54.401Z,59.85
2023-11-23T15:35:21.713Z,73.90
2023-11-23T15:37:50.471Z,65.40
2023-11-23T15:40:18.197Z,65.65
2023-11-23T15:42:46.621Z,68.13
2023-11-23T15:45:14.746Z,65.30
2023-11-23T15:47:42.411Z,52.40
2023-11-23T15:50:09.575Z,42.13
2023-11-23T15:52:37.192Z,38.67
2023-11-23T15:55:10.241Z,41.75
2023-11-23T15:57:38.096Z,41.03
2023-11-23T16:00:08.033Z,49.50
2023-11-23T16:02:39.251Z,60.58
2023-11-23T16:05:07.166Z,47.53
2023-11-23T16:07:34.599Z,46.22
2023-11-23T16:10:01.641Z,61.70
2023-11-23T16:12:28.789Z,79.05
2023-11-23T16:14:57.978Z,72.05
2023-11-23T16:17:26.009Z,99.10
2023-11-23T16:19:53.033Z,78.60
2023-11-23T16:22:20.166Z,66.60
2023-11-23T16:24:47.299Z,63.05
2023-11-23T16:27:14.906Z,61.53
2023-11-23T16:29:42.036Z,86.32
2023-11-23T16:32:10.228Z,109.00
2023-11-23T16:34:38.085Z,148.23
2023-11-23T16:37:05.397Z,90.43
2023-11-23T16:39:32.602Z,71.57
2023-11-23T16:41:59.645Z,82.40
2023-11-23T16:44:28.110Z,68.60
2023-11-23T16:46:55.197Z,65.78
2023-11-23T16:49:22.241Z,65.13
2023-11-23T16:51:49.583Z,61.70
2023-11-23T16:54:20.682Z,73.53
2023-11-23T16:59:17.991Z,69.63
2023-11-23T17:01:45.309Z,73.20
2023-11-23T17:04:12.667Z,81.80
2023-11-23T17:06:45.467Z,103.15
2023-11-23T17:09:12.579Z,84.80
2023-11-23T17:11:40.322Z,73.88
2023-11-23T17:14:11.612Z,81.78
2023-11-23T17:16:39.949Z,75.82
2023-11-23T17:19:07.071Z,69.97
2023-11-23T17:21:34.259Z,94.63
2023-11-23T17:24:01.425Z,77.38
2023-11-23T17:26:28.438Z,72.78
2023-11-23T17:28:57.746Z,78.93
2023-11-23T17:31:24.865Z,92.38
2023-11-23T17:33:52.049Z,76.97
2023-11-23T17:36:20.754Z,88.15
2023-11-23T17:38:47.863Z,83.53
2023-11-23T17:41:17.612Z,71.65
2023-11-23T17:43:47.909Z,75.75
2023-11-23T17:46:15.516Z,66.25
2023-11-23T17:48:42.773Z,68.43
2023-11-23T17:51:14.827Z,78.93
2023-11-23T17:53:42.453Z,101.57
2023-11-23T17:56:10.935Z,102.60
2023-11-23T17:58:38.111Z,59.22
2023-11-23T18:01:06.800Z,115.70
2023-11-23T18:03:36.054Z,51.45
2023-11-23T18:06:03.228Z,85.88
2023-11-23T18:08:30.554Z,123.30
2023-11-23T18:11:00.105Z,98.35
2023-11-23T18:13:30.152Z,60.17
2023-11-23T18:15:57.808Z,60.75
2023-11-23T18:18:25.081Z,43.45
2023-11-23T18:20:54.242Z,149.32
2023-11-23T18:23:22.461Z,322.57
2023-11-23T18:25:50.124Z,170.35
2023-11-23T18:28:18.930Z,107.55
2023-11-23T18:30:46.350Z,86.35
2023-11-23T18:33:13.391Z,64.70
2023-11-23T18:35:40.603Z,57.08
2023-11-23T18:38:07.703Z,55.42
2023-11-23T18:40:34.970Z,64.45
2023-11-23T18:43:04.757Z,67.13
2023-11-23T18:45:35.231Z,55.97
2023-11-23T18:48:06.302Z,58.37
2023-11-23T18:50:33.518Z,71.32
2023-11-23T18:53:01.305Z,58.67
2023-11-23T18:55:29.037Z,67.57
2023-11-23T18:57:56.223Z,72.55
2023-11-23T19:00:24.774Z,67.50
2023-11-23T19:02:54.753Z,69.30
2023-11-23T19:05:22.034Z,79.82
2023-11-23T19:07:49.134Z,73.15
2023-11-23T19:10:17.171Z,68.30
2023-11-23T19:12:48.974Z,68.88
2023-11-23T19:15:18.012Z,219.85
2023-11-23T19:17:45.485Z,77.82
2023-11-23T19:20:14.393Z,77.07
2023-11-23T19:22:41.591Z,71.55
2023-11-23T19:25:09.030Z,67.82
2023-11-23T19:27:36.456Z,67.07
2023-11-23T19:30:06.836Z,64.53
2023-11-23T19:32:34.098Z,65.37
2023-11-23T19:35:01.450Z,73.32
2023-11-23T19:37:28.733Z,62.90
2023-11-23T19:39:55.853Z,70.93
2023-11-23T19:42:23.536Z,53.40
2023-11-23T19:44:50.851Z,59.05
2023-11-23T19:47:18.148Z,74.10
2023-11-23T19:49:45.318Z,72.35
2023-11-23T19:52:14.605Z,66.97
2023-11-23T19:54:41.889Z,64.47
2023-11-23T19:57:09.888Z,57.42
2023-11-23T19:59:36.893Z,64.07
2023-11-23T20:02:04.410Z,63.45
2023-11-23T20:04:34.239Z,71.28
2023-11-23T20:07:04.545Z,77.45
2023-11-23T20:09:31.668Z,149.00
2023-11-23T20:11:59.988Z,92.07
2023-11-23T20:14:27.322Z,97.55
2023-11-23T20:16:57.808Z,98.60
2023-11-23T20:19:24.892Z,281.10
2023-11-23T20:21:52.855Z,255.40
2023-11-23T20:24:20.113Z,172.20
2023-11-23T20:26:47.572Z,139.90
2023-11-23T20:29:14.876Z,92.30
2023-11-23T20:31:41.923Z,134.55
2023-11-23T20:34:09.278Z,51.85
2023-11-23T20:36:36.358Z,57.35
2023-11-23T20:39:03.771Z,57.40
2023-11-23T20:41:30.782Z,57.13
2023-11-23T20:43:57.953Z,53.10
2023-11-23T20:46:25.019Z,50.50
2023-11-23T20:48:52.417Z,126.97
2023-11-23T20:51:20.231Z,62.72
2023-11-23T20:53:47.317Z,49.25
2023-11-23T20:56:14.714Z,72.22
2023-11-23T20:58:41.984Z,64.57
2023-11-23T21:01:09.363Z,55.42
2023-11-23T21:03:37.779Z,58.83
2023-11-23T21:06:05.657Z,67.93
2023-11-23T21:08:32.862Z,71.18
2023-11-23T21:10:59.902Z,90.13
2023-11-23T21:13:28.620Z,73.72
2023-11-23T21:15:56.142Z,87.78
2023-11-23T21:18:23.431Z,78.65
2023-11-23T21:20:51.026Z,97.93
2023-11-23T21:23:18.110Z,71.25
2023-11-23T21:25:45.188Z,65.82
2023-11-23T21:28:12.732Z,57.78
2023-11-23T21:30:39.844Z,55.28
2023-11-23T21:33:08.026Z,61.70
2023-11-23T21:35:35.106Z,55.05
2023-11-23T21:38:02.167Z,86.68
2023-11-23T21:40:29.832Z,75.68
2023-11-23T21:42:56.855Z,65.93
2023-11-23T21:45:24.052Z,92.07
2023-11-23T21:47:51.614Z,60.25
2023-11-23T21:50:18.717Z,98.68
2023-11-23T21:52:45.675Z,55.97
2023-11-23T21:55:12.866Z,114.53
2023-11-23T21:57:40.096Z,71.10
2023-11-23T22:00:09.975Z,102.40
2023-11-23T22:02:37.131Z,98.75
2023-11-23T22:05:05.224Z,71.13
2023-11-23T22:07:32.300Z,90.47
2023-11-23T22:09:59.257Z,96.15
2023-11-23T22:12:26.358Z,78.28
2023-11-23T22:14:53.517Z,89.47
2023-11-23T22:17:20.721Z,83.20
2023-11-23T22:19:47.864Z,82.32
2023-11-23T22:22:15.075Z,91.15
2023-11-23T22:24:42.349Z,82.53
2023-11-23T22:27:09.493Z,82.43
2023-11-23T22:29:36.967Z,73.13
2023-11-23T22:32:05.719Z,60.72
2023-11-23T22:34:32.953Z,75.50
2023-11-23T22:37:04.200Z,74.57
2023-11-23T22:39:31.533Z,88.88
2023-11-23T22:41:59.264Z,75.25
2023-11-23T22:44:26.540Z,64.03
2023-11-23T22:46:53.655Z,84.05
2023-11-23T22:49:20.754Z,102.53
2023-11-23T22:51:48.320Z,98.90
2023-11-23T22:54:15.467Z,81.93
2023-11-23T22:56:42.407Z,74.90
2023-11-23T22:59:09.757Z,68.25
2023-11-23T23:01:37.523Z,75.72
2023-11-23T23:04:09.420Z,59.38
2023-11-23T23:06:38.594Z,54.55
2023-11-23T23:09:06.311Z,68.72
2023-11-23T23:11:37.103Z,57.70
2023-11-23T23:14:04.332Z,69.55
2023-11-23T23:16:33.767Z,36.28
2023-11-23T23:19:00.909Z,36.75
2023-11-23T23:21:32.562Z,45.90
2023-11-23T23:24:00.052Z,42.70
2023-11-23T23:26:27.028Z,44.50
2023-11-23T23:28:54.144Z,32.95
2023-11-23T23:31:21.334Z,38.10
2023-11-23T23:33:48.514Z,43.72
2023-11-23T23:36:15.588Z,56.20
2023-11-23T23:38:42.603Z,49.60
2023-11-23T23:41:10.070Z,34.88
2023-11-23T23:43:38.170Z,45.72
2023-11-23T23:46:05.274Z,44.67
2023-11-23T23:48:32.827Z,43.97
2023-11-23T23:50:59.987Z,47.15
2023-11-23T23:53:27.019Z,57.25
2023-11-23T23:55:56.156Z,47.72
2023-11-23T23:58:23.189Z,58.05
